Lowest pressure

Not for real navigation. The accuracy of this data is not assured See disclaimer for more information



ICAO NAME COUNTRY WIND Kt GUST Kt VIS m TEMP/DEW C BARO METAR
PAMH Minchumina, Minchumina Airport AK United States 0 0 9999 3/-4 29.10 PAMH 220856Z AUTO 00000KT 10SM CAVOK 03/M04 A2910 RMK AO2 SLP616 T00281044 400831028 51012
PAMC MCGRATH AIRPORT AK United States 5 0 16000 2/-3 29.13 PAMC 220853Z AUTO 27005KT 10SM OVC065 02/M03 A2913 RMK AO2 SLP869 T00171028 400441039 51006 TS $
PATL Takotna, Tatalina LRRS Airport AK United States 0 0 16000 1/-3 29.14 PATL 220855Z AUTO 00000KT 10SM SCT055 BKN065 BKN110 01/M03 A2914 RMK AO2 SLP880 T00051034 400341030
PAFS 4 0 9999 -1/-3 29.14 PAFS 220901Z AUTO 16004KT 10SM CAVOK M01/M03 A2914 RMK AO2 SLP886 T10061033 410061006 53009 FZRANO
PARY 3 0 16000 2/-5 29.16 PARY 220856Z AUTO 31003KT 10SM BKN110 02/M05 A2916 RMK AO2 SLP903 T00171050 56006 FZRANO

Show more